Wetterstation Vordersexau
Wetterdaten: Oktober 2013
Datum Temp. A. Feuchte A. Luftdruck Regen Wind Richtung Taupunkt Windchill Windben
01.10.2013 14,3 C 78 % 1008,3 hPa 0,0 l/m 1,3 km/h NO 10,4 C 14,3 C 0,7 km/h
02.10.2013 13,5 C 73 % 1013,1 hPa 0,0 l/m 1,8 km/h SO 8,5 C 13,3 C 1,0 km/h
03.10.2013 13,2 C 75 % 1015,7 hPa 0,0 l/m 0,6 km/h W 8,6 C 13,2 C 0,3 km/h
04.10.2013 16,4 C 77 % 1015,9 hPa 0,5 l/m 0,0 km/h NO 12,4 C 16,4 C 0,0 km/h
05.10.2013 16,5 C 71 % 1014,5 hPa 26,9 l/m 3,8 km/h W-NW 11,2 C 15,8 C 2,1 km/h
06.10.2013 14,2 C 70 % 1020,9 hPa 10,4 l/m 3,4 km/h W-NW 8,6 C 13,7 C 1,9 km/h
07.10.2013 13,9 C 76 % 1022,0 hPa 0,0 l/m 0,2 km/h N-NW 9,6 C 13,9 C 0,1 km/h
08.10.2013 12,7 C 82 % 1021,8 hPa 0,0 l/m 0,3 km/h W-NW 9,7 C 12,7 C 0,2 km/h
09.10.2013 13,8 C 74 % 1018,7 hPa 0,0 l/m 0,7 km/h S-SW 9,2 C 13,7 C 0,4 km/h
10.10.2013 9,7 C 80 % 1009,1 hPa 21,2 l/m 5,3 km/h W 6,3 C 8,6 C 2,9 km/h
11.10.2013 7,5 C 79 % 1010,7 hPa 1,0 l/m 0,5 km/h SO 4,1 C 7,5 C 0,3 km/h
12.10.2013 6,1 C 78 % 1014,4 hPa 0,0 l/m 1,8 km/h W-NW 2,4 C 5,5 C 1,0 km/h
13.10.2013 9,9 C 73 % 1016,8 hPa 1,0 l/m 0,8 km/h W-NW 5,1 C 9,9 C 0,4 km/h
14.10.2013 12,9 C 79 % 1014,9 hPa 4,1 l/m 1,2 km/h S-SO 9,4 C 12,7 C 0,7 km/h
15.10.2013 13,5 C 77 % 1010,0 hPa 20,2 l/m 8,6 km/h W 9,6 C 11,5 C 4,8 km/h
16.10.2013 11,0 C 73 % 1012,7 hPa 0,5 l/m 1,1 km/h O-SO 6,2 C 10,9 C 0,6 km/h
17.10.2013 13,1 C 72 % 1016,5 hPa 2,1 l/m 4,9 km/h O-SO 8,0 C 12,1 C 2,7 km/h
18.10.2013 11,8 C 75 % 1015,8 hPa 0,0 l/m 0,1 km/h S-SO 7,3 C 11,8 C 0,1 km/h
19.10.2013 15,1 C 70 % 1012,7 hPa 0,0 l/m 0,3 km/h SO 9,4 C 15,1 C 0,2 km/h
20.10.2013 14,3 C 78 % 1014,8 hPa 7,3 l/m 0,6 km/h SO 10,6 C 14,2 C 0,4 km/h
21.10.2013 14,2 C 71 % 1015,2 hPa 0,0 l/m 2,9 km/h SO 9,0 C 13,4 C 1,6 km/h
22.10.2013 15,9 C 68 % 1008,9 hPa 0,0 l/m 0,3 km/h N-NO 9,8 C 15,9 C 0,2 km/h
23.10.2013 12,8 C 80 % 1009,5 hPa 4,1 l/m 4,2 km/h SO 9,4 C 11,7 C 2,3 km/h
24.10.2013 14,8 C 67 % 1015,7 hPa 0,0 l/m 0,9 km/h SO 8,4 C 14,7 C 0,5 km/h
25.10.2013 13,1 C 76 % 1014,0 hPa 0,0 l/m 0,4 km/h SO 8,8 C 13,1 C 0,2 km/h
26.10.2013 16,6 C 70 % 1014,2 hPa 0,0 l/m 3,2 km/h SO 10,6 C 16,3 C 1,8 km/h
27.10.2013 16,4 C 71 % 1012,6 hPa 9,3 l/m 11,8 km/h W 11,0 C 14,2 C 6,5 km/h
28.10.2013 17,2 C 64 % 1008,0 hPa 1,6 l/m 9,6 km/h W 9,8 C 15,7 C 5,3 km/h
29.10.2013 11,2 C 73 % 1015,1 hPa 3,1 l/m 7,3 km/h W-SW 6,4 C 9,3 C 4,1 km/h
30.10.2013 9,4 C 70 % 1022,1 hPa 0,0 l/m 1,4 km/h SO 3,6 C 9,2 C 0,8 km/h
31.10.2013 6,0 C 76 % 1022,5 hPa 0,0 l/m 0,2 km/h N-NW 1,7 C 6,0 C 0,1 km/h
Min-Datum 31.10.13 30.10.13 28.10.13 15 Tage 01.10.13 - 31.10.13 12.10.13 01.10.13
Min-Zeit 07:19 16:19 07:19 - 00:19 - 07:19 02:19 00:19
Minimum -1,1 C 36 % 1003,9 hPa - 0,0 km/h - -3,6 C -6,1 C 0,0 km/h
Max-Datum 19.10.13 11.10.13 31.10.13 05.10.13 23.10.13 - 21.10.13 19.10.13 23.10.13
Max-Zeit 16:19 19:19 00:19 07:19 22:19 - 16:19 16:19 22:19
Maximum 29,3 C 85 % 1024,2 hPa 26,9 l/m 33,7 km/h
SO
- 17,9 C 29,3 C 18,7 km/h
SO
Durchschnitt 12,9 C 74 % 1014,7 hPa #113,4 l/m 2,6 km/h SO 8,2 C 12,5 C 1,4 km/h

Durchschnitt Minimum Temp.8,2 C
Durchschnitt Maximum Temp.20,7 C
www.sexauwetter.de